createdAt,value
2022-11-16T00:02:18.715Z,21.80
2022-11-16T00:04:45.672Z,21.80
2022-11-16T00:07:12.586Z,21.80
2022-11-16T00:09:39.537Z,21.80
2022-11-16T00:12:07.383Z,21.80
2022-11-16T00:14:35.441Z,21.80
2022-11-16T00:17:02.898Z,21.80
2022-11-16T00:19:29.922Z,21.70
2022-11-16T00:21:56.860Z,21.80
2022-11-16T00:24:24.227Z,21.80
2022-11-16T00:26:53.039Z,21.70
2022-11-16T00:29:21.038Z,21.80
2022-11-16T00:31:48.503Z,21.70
2022-11-16T00:34:15.674Z,21.60
2022-11-16T00:36:42.980Z,21.60
2022-11-16T00:39:12.145Z,21.70
2022-11-16T00:41:39.064Z,21.70
2022-11-16T00:44:06.552Z,21.60
2022-11-16T00:46:33.723Z,21.60
2022-11-16T00:49:02.120Z,21.60
2022-11-16T00:51:29.463Z,21.60
2022-11-16T00:53:56.725Z,21.60
2022-11-16T00:56:23.863Z,21.70
2022-11-16T00:58:51.339Z,21.70
2022-11-16T01:01:18.318Z,21.70
2022-11-16T01:03:45.998Z,21.70
2022-11-16T01:06:14.614Z,21.70
2022-11-16T01:08:42.397Z,21.70
2022-11-16T01:11:29.200Z,21.70
2022-11-16T01:13:58.807Z,21.70
2022-11-16T01:16:25.658Z,21.60
2022-11-16T01:18:54.954Z,21.60
2022-11-16T01:21:22.977Z,21.70
2022-11-16T01:23:50.608Z,21.60
2022-11-16T01:26:17.869Z,21.60
2022-11-16T01:28:44.985Z,21.70
2022-11-16T01:31:13.038Z,21.60
2022-11-16T01:33:40.715Z,21.70
2022-11-16T01:36:17.304Z,21.60
2022-11-16T01:38:45.721Z,21.60
2022-11-16T01:41:16.347Z,21.60
2022-11-16T01:44:03.894Z,21.60
2022-11-16T01:46:37.139Z,21.60
2022-11-16T01:49:09.641Z,21.60
2022-11-16T01:51:37.226Z,21.60
2022-11-16T01:54:08.906Z,21.60
2022-11-16T01:56:38.717Z,21.60
2022-11-16T01:59:10.698Z,21.60
2022-11-16T02:01:37.917Z,21.60
2022-11-16T02:04:05.344Z,21.60
2022-11-16T02:06:49.198Z,21.50
2022-11-16T02:09:55.328Z,21.60
2022-11-16T02:12:36.232Z,21.60
2022-11-16T02:15:27.703Z,21.50
2022-11-16T02:18:41.996Z,21.50
2022-11-16T02:21:32.933Z,21.50
2022-11-16T02:24:11.240Z,21.50
2022-11-16T02:26:53.626Z,21.40
2022-11-16T02:29:34.353Z,21.40
2022-11-16T02:32:21.142Z,21.40
2022-11-16T02:34:54.811Z,21.40
2022-11-16T02:37:24.973Z,21.40
2022-11-16T02:39:56.720Z,21.40
2022-11-16T02:42:31.318Z,21.40
2022-11-16T02:44:59.272Z,21.40
2022-11-16T02:47:31.275Z,21.30
2022-11-16T02:50:09.316Z,21.40
2022-11-16T02:52:37.350Z,21.40
2022-11-16T02:55:07.647Z,21.40
2022-11-16T02:57:53.909Z,21.40
2022-11-16T03:00:26.156Z,21.40
2022-11-16T03:03:07.626Z,21.30
2022-11-16T03:06:05.058Z,21.30
2022-11-16T03:08:39.894Z,21.30
2022-11-16T03:11:30.195Z,21.30
2022-11-16T03:14:03.715Z,21.30
2022-11-16T03:16:35.059Z,21.20
2022-11-16T03:19:09.184Z,21.20
2022-11-16T03:21:59.085Z,21.20
2022-11-16T03:24:26.068Z,21.30
2022-11-16T03:27:17.863Z,21.20
2022-11-16T03:29:59.853Z,21.30
2022-11-16T03:32:38.649Z,21.20
2022-11-16T03:35:29.752Z,21.20
2022-11-16T03:37:58.941Z,21.20
2022-11-16T03:40:29.509Z,21.20
2022-11-16T03:42:58.372Z,21.10
2022-11-16T03:45:25.442Z,21.20
2022-11-16T03:47:53.563Z,21.10
2022-11-16T03:50:21.177Z,21.10
2022-11-16T03:52:48.057Z,21.10
2022-11-16T03:55:15.560Z,21.20
2022-11-16T03:57:44.239Z,21.20
2022-11-16T04:00:12.742Z,21.10
2022-11-16T04:02:43.523Z,21.10
2022-11-16T04:05:35.473Z,21.10
2022-11-16T04:08:20.620Z,21.10
2022-11-16T04:11:06.127Z,21.10
2022-11-16T04:13:53.102Z,21.10
2022-11-16T04:16:38.764Z,21.10
2022-11-16T04:19:27.697Z,21.10
2022-11-16T04:22:24.031Z,21.00
2022-11-16T04:24:56.433Z,21.00
2022-11-16T04:27:44.928Z,21.00
2022-11-16T04:30:13.383Z,21.00
2022-11-16T04:32:58.680Z,21.00
2022-11-16T04:35:44.059Z,21.00
2022-11-16T04:38:10.988Z,21.00
2022-11-16T04:40:38.194Z,21.00
2022-11-16T04:43:05.703Z,21.00
2022-11-16T04:45:54.420Z,21.00
2022-11-16T04:48:25.231Z,21.00
2022-11-16T04:50:54.145Z,21.00
2022-11-16T04:53:22.584Z,21.00
2022-11-16T04:56:00.734Z,21.00
2022-11-16T04:58:29.161Z,21.00
2022-11-16T05:00:56.087Z,21.00
2022-11-16T05:03:23.044Z,21.00
2022-11-16T05:05:50.619Z,21.00
2022-11-16T05:08:17.637Z,21.00
2022-11-16T05:10:46.146Z,21.00
2022-11-16T05:13:12.990Z,21.00
2022-11-16T05:15:39.885Z,20.90
2022-11-16T05:18:07.617Z,21.00
2022-11-16T05:20:52.834Z,21.00
2022-11-16T05:23:38.401Z,21.00
2022-11-16T05:26:10.236Z,20.90
2022-11-16T05:28:38.212Z,20.90
2022-11-16T05:31:05.323Z,20.90
2022-11-16T05:33:32.550Z,20.90
2022-11-16T05:35:59.379Z,20.90
2022-11-16T05:38:26.380Z,20.90
2022-11-16T05:40:56.738Z,20.90
2022-11-16T05:43:24.367Z,20.90
2022-11-16T05:46:17.235Z,20.90
2022-11-16T05:48:45.047Z,20.90
2022-11-16T05:51:12.819Z,20.90
2022-11-16T05:53:39.620Z,20.90
2022-11-16T05:56:07.279Z,20.90
2022-11-16T05:58:38.401Z,20.90
2022-11-16T06:01:06.101Z,20.90
2022-11-16T06:03:33.297Z,20.90
2022-11-16T06:06:00.411Z,20.90
2022-11-16T06:08:29.819Z,20.90
2022-11-16T06:11:04.501Z,20.90
2022-11-16T06:13:32.907Z,20.80
2022-11-16T06:16:01.744Z,20.80
2022-11-16T06:18:30.557Z,20.80
2022-11-16T06:20:58.555Z,20.80
2022-11-16T06:23:26.041Z,20.80
2022-11-16T06:25:55.085Z,20.80
2022-11-16T06:28:23.967Z,20.80
2022-11-16T06:30:51.020Z,20.80
2022-11-16T06:33:18.235Z,20.80
2022-11-16T06:35:45.666Z,20.80
2022-11-16T06:38:20.636Z,20.80
2022-11-16T06:40:54.685Z,20.80
2022-11-16T06:43:25.446Z,20.80
2022-11-16T06:45:56.755Z,20.80
2022-11-16T06:48:24.034Z,20.80
2022-11-16T06:50:54.891Z,20.80
2022-11-16T06:53:28.720Z,20.70
2022-11-16T06:56:02.004Z,20.70
2022-11-16T06:58:31.913Z,20.80
2022-11-16T07:01:09.062Z,20.70
2022-11-16T07:03:38.907Z,20.70
2022-11-16T07:06:11.907Z,20.70
2022-11-16T07:08:40.761Z,20.70
2022-11-16T07:11:10.205Z,20.70
2022-11-16T07:13:38.439Z,20.70
2022-11-16T07:16:11.160Z,20.70
2022-11-16T07:18:42.994Z,20.70
2022-11-16T07:21:15.891Z,20.70
2022-11-16T07:23:43.892Z,20.70
2022-11-16T07:26:15.129Z,20.70
2022-11-16T07:28:53.348Z,20.70
2022-11-16T07:31:22.301Z,20.70
2022-11-16T07:34:09.059Z,20.60
2022-11-16T07:36:42.058Z,20.60
2022-11-16T07:39:10.304Z,20.60
2022-11-16T07:41:45.154Z,20.60
2022-11-16T07:44:22.843Z,20.50
2022-11-16T07:47:01.845Z,20.40
2022-11-16T07:49:31.159Z,20.30
2022-11-16T07:52:03.579Z,20.30
2022-11-16T07:54:39.997Z,20.30
2022-11-16T07:57:07.214Z,20.20
2022-11-16T07:59:34.366Z,20.20
2022-11-16T08:02:03.121Z,20.20
2022-11-16T08:04:31.523Z,20.20
2022-11-16T08:06:59.213Z,20.10
2022-11-16T08:09:29.931Z,20.10
2022-11-16T08:11:58.128Z,20.10
2022-11-16T08:14:25.023Z,20.10
2022-11-16T08:16:54.852Z,20.10
2022-11-16T08:19:22.511Z,20.10
2022-11-16T08:21:49.365Z,20.00
2022-11-16T08:24:17.071Z,20.00
2022-11-16T08:26:44.988Z,20.00
2022-11-16T08:29:15.195Z,20.00
2022-11-16T08:31:47.540Z,20.00
2022-11-16T08:34:18.393Z,19.90
2022-11-16T08:36:49.686Z,19.90
2022-11-16T08:39:18.689Z,19.90
2022-11-16T08:41:45.631Z,19.90
2022-11-16T08:44:12.987Z,19.90
2022-11-16T08:46:44.252Z,20.00
2022-11-16T08:49:37.379Z,19.90
2022-11-16T08:52:05.137Z,19.90
2022-11-16T08:54:33.042Z,20.00
2022-11-16T08:56:59.897Z,20.00
2022-11-16T08:59:29.125Z,20.00
2022-11-16T09:02:00.569Z,20.00
2022-11-16T09:04:29.612Z,19.90
2022-11-16T09:06:58.412Z,19.90
2022-11-16T09:09:25.402Z,20.00
2022-11-16T09:11:55.127Z,20.00
2022-11-16T09:14:21.985Z,20.00
2022-11-16T09:16:48.847Z,20.00
2022-11-16T09:19:15.743Z,20.10
2022-11-16T09:21:44.470Z,20.10
2022-11-16T09:24:11.918Z,20.10
2022-11-16T09:26:38.755Z,20.10
2022-11-16T09:29:05.565Z,20.10
2022-11-16T09:31:34.642Z,20.10
2022-11-16T09:34:02.781Z,20.20
2022-11-16T09:36:29.752Z,20.20
2022-11-16T09:42:20.044Z,20.20
2022-11-16T09:44:52.662Z,20.20
2022-11-16T09:47:26.761Z,20.20
2022-11-16T09:50:03.623Z,20.20
2022-11-16T09:52:41.372Z,20.20
2022-11-16T09:55:33.086Z,20.30
2022-11-16T09:58:02.260Z,20.30
2022-11-16T10:00:29.098Z,20.20
2022-11-16T10:03:05.692Z,20.20
2022-11-16T10:05:57.540Z,20.20
2022-11-16T10:08:36.540Z,20.20
2022-11-16T10:11:18.630Z,20.20
2022-11-16T10:14:05.691Z,20.20
2022-11-16T10:16:48.613Z,20.10
2022-11-16T10:19:36.627Z,20.20
2022-11-16T10:22:21.776Z,20.20
2022-11-16T10:24:56.293Z,20.30
2022-11-16T10:27:28.050Z,20.30
2022-11-16T10:30:16.952Z,20.40
2022-11-16T10:33:03.593Z,20.50
2022-11-16T10:35:42.435Z,20.60
2022-11-16T10:38:15.183Z,20.80
2022-11-16T10:40:42.219Z,20.90
2022-11-16T10:43:39.572Z,21.00
2022-11-16T10:46:20.379Z,21.10
2022-11-16T10:49:08.556Z,21.20
2022-11-16T10:51:35.446Z,21.30
2022-11-16T10:54:03.175Z,21.30
2022-11-16T10:56:39.630Z,21.40
2022-11-16T10:59:07.117Z,21.60
2022-11-16T11:01:53.109Z,21.60
2022-11-16T11:04:23.481Z,21.70
2022-11-16T11:06:59.056Z,21.80
2022-11-16T11:09:34.718Z,21.80
2022-11-16T11:12:34.552Z,21.90
2022-11-16T11:15:05.584Z,21.90
2022-11-16T11:17:34.545Z,22.00
2022-11-16T11:20:04.263Z,22.00
2022-11-16T11:22:48.324Z,22.00
2022-11-16T11:25:36.039Z,22.00
2022-11-16T11:28:32.754Z,22.10
2022-11-16T11:31:06.111Z,22.10
2022-11-16T11:33:53.980Z,22.00
2022-11-16T11:36:25.958Z,22.00
2022-11-16T11:38:57.823Z,22.00
2022-11-16T11:41:24.877Z,22.10
2022-11-16T11:44:05.963Z,22.10
2022-11-16T11:47:18.171Z,22.10
2022-11-16T11:49:34.022Z,22.10
2022-11-16T11:52:09.211Z,22.10
2022-11-16T11:54:45.514Z,22.10
2022-11-16T11:57:20.567Z,22.10
2022-11-16T11:59:48.948Z,22.10
2022-11-16T12:02:29.132Z,22.10
2022-11-16T12:05:22.082Z,22.20
2022-11-16T12:08:12.492Z,22.20
2022-11-16T12:11:00.608Z,22.20
2022-11-16T12:13:58.751Z,22.20
2022-11-16T12:16:53.682Z,22.20
2022-11-16T12:19:38.850Z,22.20
2022-11-16T12:22:38.001Z,22.30
2022-11-16T12:25:43.082Z,22.30
2022-11-16T12:28:37.070Z,22.30
2022-11-16T12:31:27.248Z,22.30
2022-11-16T12:34:11.335Z,22.30
2022-11-16T12:36:53.484Z,22.30
2022-11-16T12:39:41.604Z,22.30
2022-11-16T12:42:15.202Z,22.30
2022-11-16T12:45:03.640Z,22.30
2022-11-16T12:47:55.011Z,22.30
2022-11-16T12:50:30.012Z,22.30
2022-11-16T12:52:56.832Z,22.40
2022-11-16T12:55:27.735Z,22.40
2022-11-16T12:58:00.825Z,22.40
2022-11-16T13:00:29.010Z,22.40
2022-11-16T13:03:10.802Z,22.40
2022-11-16T13:05:40.686Z,22.50
2022-11-16T13:08:31.948Z,22.50
2022-11-16T13:11:32.575Z,22.50
2022-11-16T13:14:02.700Z,22.50
2022-11-16T13:16:29.709Z,22.50
2022-11-16T13:18:57.959Z,22.50
2022-11-16T13:21:43.184Z,22.50
2022-11-16T13:24:26.912Z,22.50
2022-11-16T13:27:14.868Z,22.50
2022-11-16T13:29:52.082Z,22.50
2022-11-16T13:32:31.819Z,22.50
2022-11-16T13:34:59.495Z,22.50
2022-11-16T13:37:38.491Z,22.50
2022-11-16T13:40:05.457Z,22.50
2022-11-16T13:42:34.496Z,22.50
2022-11-16T13:45:17.929Z,22.40
2022-11-16T13:47:55.666Z,22.50
2022-11-16T13:50:37.516Z,22.50
2022-11-16T13:53:57.653Z,22.50
2022-11-16T13:56:02.286Z,22.40
2022-11-16T13:58:30.341Z,22.40
2022-11-16T14:00:59.430Z,22.50
2022-11-16T14:03:27.201Z,22.50
2022-11-16T14:05:54.121Z,22.40
2022-11-16T14:08:26.881Z,22.40
2022-11-16T14:10:53.662Z,22.50
2022-11-16T14:13:43.717Z,22.50
2022-11-16T14:16:19.804Z,22.70
2022-11-16T14:18:58.499Z,22.70
2022-11-16T14:21:47.897Z,22.70
2022-11-16T14:24:34.788Z,22.70
2022-11-16T14:27:49.386Z,22.80
2022-11-16T14:30:22.691Z,22.80
2022-11-16T14:32:52.337Z,22.70
2022-11-16T14:35:39.642Z,22.80
2022-11-16T14:38:28.791Z,22.90
2022-11-16T14:40:59.622Z,22.90
2022-11-16T14:43:41.768Z,22.90
2022-11-16T14:46:19.903Z,22.90
2022-11-16T14:48:47.026Z,22.90
2022-11-16T14:51:35.113Z,22.90
2022-11-16T14:54:11.688Z,23.00
2022-11-16T14:56:38.918Z,22.90
2022-11-16T14:59:05.710Z,22.90
2022-11-16T15:01:41.297Z,22.90
2022-11-16T15:04:10.259Z,23.00
2022-11-16T15:06:56.449Z,22.90
2022-11-16T15:09:27.665Z,22.90
2022-11-16T15:12:13.368Z,22.80
2022-11-16T15:15:05.601Z,22.80
2022-11-16T15:17:33.607Z,22.90
2022-11-16T15:20:03.900Z,22.80
2022-11-16T15:22:32.828Z,22.80
2022-11-16T15:25:01.278Z,22.80
2022-11-16T15:27:40.131Z,22.80
2022-11-16T15:30:16.914Z,22.80
2022-11-16T15:32:44.738Z,22.80
2022-11-16T15:35:21.812Z,22.70
2022-11-16T15:38:01.775Z,22.70
2022-11-16T15:40:29.908Z,22.70
2022-11-16T15:42:59.690Z,22.70
2022-11-16T15:45:27.009Z,22.60
2022-11-16T15:47:54.415Z,22.60
2022-11-16T15:50:25.882Z,22.60
2022-11-16T15:52:57.078Z,22.60
2022-11-16T15:55:40.178Z,22.60
2022-11-16T15:58:18.958Z,22.60
2022-11-16T16:00:48.363Z,22.60
2022-11-16T16:03:22.216Z,22.60
2022-11-16T16:05:49.441Z,22.50
2022-11-16T16:08:31.142Z,22.50
2022-11-16T16:11:01.879Z,22.50
2022-11-16T16:13:37.993Z,22.50
2022-11-16T16:16:23.085Z,22.50
2022-11-16T16:18:50.599Z,22.60
2022-11-16T16:21:18.094Z,22.60
2022-11-16T16:23:50.909Z,22.60
2022-11-16T16:26:18.331Z,22.60
2022-11-16T16:28:45.568Z,22.60
2022-11-16T16:31:13.074Z,22.60
2022-11-16T16:33:40.103Z,22.70
2022-11-16T16:36:07.223Z,22.70
2022-11-16T16:38:34.035Z,22.70
2022-11-16T16:41:02.711Z,22.70
2022-11-16T16:43:30.442Z,22.70
2022-11-16T16:46:00.092Z,22.70
2022-11-16T16:48:26.903Z,22.80
2022-11-16T16:50:53.726Z,22.80
2022-11-16T16:53:20.574Z,22.80
2022-11-16T16:55:48.919Z,22.80
2022-11-16T16:58:16.243Z,22.80
2022-11-16T17:00:43.269Z,22.70
2022-11-16T17:03:10.176Z,22.70
2022-11-16T17:05:37.257Z,22.70
2022-11-16T17:08:04.242Z,22.70
2022-11-16T17:10:31.082Z,22.70
2022-11-16T17:12:58.293Z,22.70
2022-11-16T17:15:25.146Z,22.70
2022-11-16T17:17:52.006Z,22.70
2022-11-16T17:20:18.851Z,22.60
2022-11-16T17:22:46.007Z,22.60
2022-11-16T17:25:13.207Z,22.60
2022-11-16T17:27:40.088Z,22.60
2022-11-16T17:30:07.586Z,22.60
2022-11-16T17:32:34.483Z,22.50
2022-11-16T17:35:01.291Z,22.60
2022-11-16T17:37:28.112Z,22.50
2022-11-16T17:39:54.947Z,22.60
2022-11-16T17:42:21.799Z,22.60
2022-11-16T17:44:49.659Z,22.50
2022-11-16T17:47:16.511Z,22.50
2022-11-16T17:49:43.319Z,22.50
2022-11-16T17:52:10.190Z,22.50
2022-11-16T17:54:36.995Z,22.50
2022-11-16T17:57:03.919Z,22.50
2022-11-16T17:59:30.846Z,22.50
2022-11-16T18:01:58.052Z,22.40
2022-11-16T18:04:25.196Z,22.50
2022-11-16T18:06:52.169Z,22.40
2022-11-16T18:09:19.171Z,22.50
2022-11-16T18:11:46.103Z,22.50
2022-11-16T18:14:12.963Z,22.50
2022-11-16T18:16:43.191Z,22.50
2022-11-16T18:19:15.726Z,22.50
2022-11-16T18:21:42.882Z,22.50
2022-11-16T18:24:10.081Z,22.50
2022-11-16T18:26:37.027Z,22.50
2022-11-16T18:29:04.152Z,22.50
2022-11-16T18:31:32.983Z,22.50
2022-11-16T18:34:01.247Z,22.50
2022-11-16T18:36:28.116Z,22.50
2022-11-16T18:38:54.970Z,22.50
2022-11-16T18:41:24.234Z,22.50
2022-11-16T18:43:57.883Z,22.50
2022-11-16T18:46:29.741Z,22.50
2022-11-16T18:48:56.971Z,22.50
2022-11-16T18:51:25.033Z,22.50
2022-11-16T18:53:51.941Z,22.50
2022-11-16T18:56:19.435Z,22.50
2022-11-16T18:58:51.478Z,22.50
2022-11-16T19:01:22.108Z,22.60
2022-11-16T19:03:49.227Z,22.50
2022-11-16T19:06:17.773Z,22.50
2022-11-16T19:08:49.026Z,22.50
2022-11-16T19:11:20.911Z,22.50
2022-11-16T19:13:53.144Z,22.50
2022-11-16T19:16:20.000Z,22.50
2022-11-16T19:18:46.852Z,22.50
2022-11-16T19:21:15.476Z,22.50
2022-11-16T19:23:48.328Z,22.50
2022-11-16T19:26:16.795Z,22.50
2022-11-16T19:28:45.351Z,22.50
2022-11-16T19:31:13.328Z,22.50
2022-11-16T19:33:40.441Z,22.50
2022-11-16T19:36:12.389Z,22.50
2022-11-16T19:38:39.945Z,22.50
2022-11-16T19:41:09.439Z,22.50
2022-11-16T19:43:36.580Z,22.50
2022-11-16T19:46:05.566Z,22.50
2022-11-16T19:48:33.069Z,22.50
2022-11-16T19:51:06.817Z,22.50
2022-11-16T19:53:34.160Z,22.50
2022-11-16T19:56:01.447Z,22.50
2022-11-16T19:58:28.296Z,22.50
2022-11-16T20:01:10.716Z,22.50
2022-11-16T20:03:41.892Z,22.60
2022-11-16T20:06:20.943Z,22.70
2022-11-16T20:08:52.841Z,22.90
2022-11-16T20:11:22.768Z,23.00
2022-11-16T20:13:51.156Z,23.10
2022-11-16T20:16:19.519Z,23.20
2022-11-16T20:18:47.484Z,23.20
2022-11-16T20:21:23.574Z,23.20
2022-11-16T20:23:54.386Z,23.30
2022-11-16T20:26:21.834Z,23.30
2022-11-16T20:28:52.194Z,23.30
2022-11-16T20:31:27.124Z,23.30
2022-11-16T20:33:58.446Z,23.40
2022-11-16T20:36:27.043Z,23.40
2022-11-16T20:38:54.420Z,23.40
2022-11-16T20:41:25.717Z,23.40
2022-11-16T20:43:54.130Z,23.40
2022-11-16T20:46:22.902Z,23.40
2022-11-16T20:48:49.963Z,23.40
2022-11-16T20:51:18.762Z,23.40
2022-11-16T20:53:46.604Z,23.40
2022-11-16T20:56:13.894Z,23.40
2022-11-16T20:58:41.020Z,23.40
2022-11-16T21:01:11.800Z,23.40
2022-11-16T21:03:39.200Z,23.50
2022-11-16T21:06:09.740Z,23.40
2022-11-16T21:08:37.342Z,23.40
2022-11-16T21:11:18.502Z,23.50
2022-11-16T21:14:04.724Z,23.50
2022-11-16T21:16:32.304Z,23.40
2022-11-16T21:19:00.115Z,23.40
2022-11-16T21:21:27.303Z,23.40
2022-11-16T21:23:55.078Z,23.40
2022-11-16T21:26:29.540Z,23.50
2022-11-16T21:28:57.194Z,23.50
2022-11-16T21:31:26.758Z,23.40
2022-11-16T21:33:54.448Z,23.40
2022-11-16T21:36:23.439Z,23.40
2022-11-16T21:38:50.822Z,23.40
2022-11-16T21:41:18.843Z,23.40
2022-11-16T21:43:45.942Z,23.40
2022-11-16T21:46:15.716Z,23.40
2022-11-16T21:48:42.757Z,23.40
2022-11-16T21:51:10.784Z,23.40
2022-11-16T21:53:38.286Z,23.40
2022-11-16T21:56:06.474Z,23.40
2022-11-16T21:58:33.326Z,23.40
2022-11-16T22:01:01.601Z,23.30
2022-11-16T22:03:30.511Z,23.30
2022-11-16T22:06:21.432Z,23.30
2022-11-16T22:08:48.894Z,23.30
2022-11-16T22:11:16.363Z,23.30
2022-11-16T22:13:43.784Z,23.30
2022-11-16T22:16:12.714Z,23.30
2022-11-16T22:18:39.779Z,23.30
2022-11-16T22:21:07.200Z,23.30
2022-11-16T22:23:34.796Z,23.20
2022-11-16T22:26:07.211Z,23.30
2022-11-16T22:28:34.866Z,23.30
2022-11-16T22:31:02.432Z,23.30
2022-11-16T22:33:30.584Z,23.20
2022-11-16T22:35:57.539Z,23.20
2022-11-16T22:38:24.422Z,23.20
2022-11-16T22:40:55.727Z,23.20
2022-11-16T22:43:24.949Z,23.20
2022-11-16T22:45:51.653Z,23.20
2022-11-16T22:48:18.545Z,23.10
2022-11-16T22:50:45.349Z,23.00
2022-11-16T22:53:12.244Z,23.10
2022-11-16T22:55:39.322Z,23.10
2022-11-16T22:58:06.561Z,23.10
2022-11-16T23:00:38.967Z,23.10
2022-11-16T23:03:08.763Z,23.10
2022-11-16T23:05:35.595Z,23.10
2022-11-16T23:08:02.457Z,23.10
2022-11-16T23:10:29.378Z,23.10
2022-11-16T23:13:14.778Z,23.10
2022-11-16T23:15:50.494Z,23.10
2022-11-16T23:18:19.546Z,23.00
2022-11-16T23:21:04.987Z,23.00
2022-11-16T23:23:50.407Z,22.90
2022-11-16T23:26:41.101Z,22.80
2022-11-16T23:29:08.983Z,22.80
2022-11-16T23:31:36.899Z,22.80
2022-11-16T23:34:04.420Z,22.90
2022-11-16T23:36:31.315Z,22.80
2022-11-16T23:38:58.114Z,22.90
2022-11-16T23:41:43.415Z,22.90
2022-11-16T23:44:10.330Z,22.90
2022-11-16T23:46:37.153Z,22.90
2022-11-16T23:49:03.933Z,22.90
2022-11-16T23:51:30.820Z,22.90
2022-11-16T23:53:57.799Z,22.90
2022-11-16T23:56:24.705Z,22.90
2022-11-16T23:58:56.293Z,22.90
